createdAt,value
2024-01-24T00:00:36.719Z,52.86
2024-01-24T00:01:36.669Z,52.70
2024-01-24T00:02:36.646Z,54.72
2024-01-24T00:03:36.739Z,52.86
2024-01-24T00:04:36.733Z,50.83
2024-01-24T00:05:36.802Z,51.99
2024-01-24T00:06:36.896Z,54.03
2024-01-24T00:07:36.857Z,52.23
2024-01-24T00:08:36.898Z,55.71
2024-01-24T00:09:37.019Z,53.78
2024-01-24T00:10:36.962Z,52.38
2024-01-24T00:11:37.072Z,51.74
2024-01-24T00:12:37.168Z,53.93
2024-01-24T00:13:37.126Z,52.81
2024-01-24T00:14:37.144Z,52.36
2024-01-24T00:15:37.224Z,52.34
2024-01-24T00:16:37.236Z,51.55
2024-01-24T00:17:37.352Z,51.55
2024-01-24T00:18:37.436Z,53.77
2024-01-24T00:19:37.500Z,53.19
2024-01-24T00:20:37.456Z,51.43
2024-01-24T00:21:37.488Z,52.66
2024-01-24T00:22:37.605Z,52.45
2024-01-24T00:23:37.599Z,52.40
2024-01-24T00:24:37.695Z,52.81
2024-01-24T00:25:37.692Z,54.61
2024-01-24T00:26:37.717Z,53.21
2024-01-24T00:27:37.787Z,52.51
2024-01-24T00:28:37.799Z,52.51
2024-01-24T00:29:37.818Z,53.96
2024-01-24T00:30:37.901Z,53.56
2024-01-24T00:31:37.992Z,54.65
2024-01-24T00:32:38.046Z,50.00
2024-01-24T00:33:38.169Z,50.71
2024-01-24T00:34:38.232Z,51.96
2024-01-24T00:35:38.206Z,50.02
2024-01-24T00:36:38.309Z,53.31
2024-01-24T00:37:38.290Z,55.07
2024-01-24T00:38:38.312Z,52.11
2024-01-24T00:39:38.373Z,54.54
2024-01-24T00:40:38.348Z,51.18
2024-01-24T00:41:38.409Z,52.70
2024-01-24T00:42:38.433Z,52.60
2024-01-24T00:43:38.406Z,52.31
2024-01-24T00:44:38.478Z,52.63
2024-01-24T00:45:38.546Z,52.13
2024-01-24T00:46:38.598Z,51.91
2024-01-24T00:47:38.719Z,53.69
2024-01-24T00:48:38.770Z,53.77
2024-01-24T00:49:38.816Z,51.27
2024-01-24T00:50:38.786Z,52.24
2024-01-24T00:51:38.810Z,51.32
2024-01-24T00:52:38.856Z,54.43
2024-01-24T00:53:38.886Z,53.74
2024-01-24T00:54:38.961Z,53.95
2024-01-24T00:55:38.912Z,52.16
2024-01-24T00:56:38.945Z,52.89
2024-01-24T00:57:38.971Z,50.56
2024-01-24T00:58:38.996Z,53.80
2024-01-24T00:59:39.005Z,53.54
2024-01-24T01:00:39.136Z,53.12
2024-01-24T01:01:39.089Z,52.41
2024-01-24T01:02:39.099Z,53.98
2024-01-24T01:03:39.203Z,53.58
2024-01-24T01:04:39.138Z,52.00
2024-01-24T01:05:39.249Z,51.72
2024-01-24T01:06:39.161Z,52.13
2024-01-24T01:07:39.202Z,53.28
2024-01-24T01:08:39.198Z,53.60
2024-01-24T01:09:39.238Z,53.41
2024-01-24T01:10:39.238Z,53.27
2024-01-24T01:11:39.234Z,52.77
2024-01-24T01:12:39.391Z,53.85
2024-01-24T01:13:39.261Z,52.58
2024-01-24T01:14:39.303Z,53.52
2024-01-24T01:15:39.335Z,53.81
2024-01-24T01:16:39.321Z,54.04
2024-01-24T01:17:39.399Z,51.85
2024-01-24T01:18:39.533Z,52.31
2024-01-24T01:19:39.375Z,52.67
2024-01-24T01:20:39.407Z,52.10
2024-01-24T01:21:39.613Z,53.89
2024-01-24T01:22:39.516Z,54.21
2024-01-24T01:23:39.476Z,52.88
2024-01-24T01:24:39.475Z,50.87
2024-01-24T01:25:39.441Z,53.99
2024-01-24T01:26:39.443Z,53.25
2024-01-24T01:27:39.550Z,52.41
2024-01-24T01:28:39.472Z,52.61
2024-01-24T01:29:39.501Z,53.89
2024-01-24T01:30:39.530Z,52.22
2024-01-24T01:31:39.490Z,52.84
2024-01-24T01:32:39.536Z,52.05
2024-01-24T01:33:39.687Z,52.05
2024-01-24T01:34:39.644Z,53.85
2024-01-24T01:35:39.525Z,52.63
2024-01-24T01:36:39.611Z,52.77
2024-01-24T01:37:39.534Z,53.13
2024-01-24T01:38:39.541Z,53.26
2024-01-24T01:39:39.585Z,52.32
2024-01-24T01:40:39.567Z,54.24
2024-01-24T01:41:39.579Z,51.02
2024-01-24T01:42:39.597Z,50.62
2024-01-24T01:43:39.592Z,50.39
2024-01-24T01:44:39.569Z,53.07
2024-01-24T01:45:39.627Z,50.00
2024-01-24T01:46:39.621Z,53.61
2024-01-24T01:47:39.627Z,53.39
2024-01-24T01:48:39.764Z,53.33
2024-01-24T01:49:39.729Z,52.77
2024-01-24T01:50:39.610Z,51.45
2024-01-24T01:51:39.624Z,53.10
2024-01-24T01:52:39.629Z,54.37
2024-01-24T01:53:39.964Z,51.98
2024-01-24T01:54:39.699Z,51.91
2024-01-24T01:55:39.626Z,52.61
2024-01-24T01:56:39.648Z,52.58
2024-01-24T01:57:39.696Z,51.82
2024-01-24T01:58:39.660Z,54.08
2024-01-24T01:59:39.640Z,52.36
2024-01-24T02:00:39.745Z,51.72
2024-01-24T02:01:39.746Z,53.35
2024-01-24T02:02:39.710Z,52.16
2024-01-24T02:03:39.846Z,55.58
2024-01-24T02:04:39.717Z,52.51
2024-01-24T02:05:39.731Z,54.89
2024-01-24T02:06:39.856Z,52.31
2024-01-24T02:07:39.863Z,52.48
2024-01-24T02:08:39.770Z,52.61
2024-01-24T02:09:39.872Z,50.81
2024-01-24T02:10:39.869Z,53.50
2024-01-24T02:11:39.895Z,53.73
2024-01-24T02:12:39.964Z,52.15
2024-01-24T02:13:39.912Z,52.62
2024-01-24T02:14:39.968Z,53.36
2024-01-24T02:15:40.025Z,50.56
2024-01-24T02:16:40.174Z,53.08
2024-01-24T02:17:40.172Z,52.66
2024-01-24T02:18:40.106Z,53.74
2024-01-24T02:19:40.142Z,53.00
2024-01-24T02:20:40.094Z,54.11
2024-01-24T02:21:40.180Z,53.29
2024-01-24T02:22:40.181Z,52.80
2024-01-24T02:23:40.194Z,54.45
2024-01-24T02:24:40.272Z,52.79
2024-01-24T02:25:40.241Z,53.07
2024-01-24T02:26:40.266Z,53.66
2024-01-24T02:27:40.357Z,53.44
2024-01-24T02:28:40.340Z,52.98
2024-01-24T02:29:40.335Z,53.27
2024-01-24T02:30:40.406Z,54.19
2024-01-24T02:31:40.399Z,53.57
2024-01-24T02:32:40.533Z,51.90
2024-01-24T02:33:40.563Z,52.41
2024-01-24T02:34:40.699Z,52.89
2024-01-24T02:35:40.505Z,50.85
2024-01-24T02:36:40.575Z,51.95
2024-01-24T02:37:40.583Z,52.79
2024-01-24T02:38:40.600Z,51.62
2024-01-24T02:39:40.661Z,52.04
2024-01-24T02:40:40.645Z,52.14
2024-01-24T02:41:40.654Z,52.00
2024-01-24T02:42:40.747Z,53.02
2024-01-24T02:43:40.739Z,51.18
2024-01-24T02:44:40.734Z,53.27
2024-01-24T02:45:40.795Z,52.44
2024-01-24T02:46:40.792Z,52.06
2024-01-24T02:47:40.838Z,51.86
2024-01-24T02:48:40.878Z,50.88
2024-01-24T02:49:41.007Z,52.87
2024-01-24T02:50:40.918Z,53.04
2024-01-24T02:51:40.969Z,51.79
2024-01-24T02:52:41.020Z,52.73
2024-01-24T02:53:41.161Z,52.54
2024-01-24T02:54:41.118Z,52.43
2024-01-24T02:55:41.091Z,53.02
2024-01-24T02:56:41.094Z,52.74
2024-01-24T02:57:41.224Z,53.11
2024-01-24T02:58:41.191Z,52.47
2024-01-24T02:59:41.218Z,52.08
2024-01-24T03:00:41.471Z,53.01
2024-01-24T03:01:41.414Z,55.61
2024-01-24T03:02:41.406Z,51.81
2024-01-24T03:03:41.503Z,52.21
2024-01-24T03:04:41.527Z,52.51
2024-01-24T03:05:41.488Z,50.87
2024-01-24T03:06:41.588Z,53.70
2024-01-24T03:07:41.634Z,53.17
2024-01-24T03:08:41.660Z,56.23
2024-01-24T03:09:41.758Z,52.88
2024-01-24T03:10:41.808Z,51.58
2024-01-24T03:11:41.891Z,54.58
2024-01-24T03:12:42.014Z,53.43
2024-01-24T03:13:42.010Z,55.40
2024-01-24T03:14:42.066Z,53.61
2024-01-24T03:15:42.219Z,53.21
2024-01-24T03:16:42.343Z,54.27
2024-01-24T03:17:42.331Z,52.99
2024-01-24T03:18:42.443Z,51.54
2024-01-24T03:19:42.539Z,53.51
2024-01-24T03:20:42.508Z,51.26
2024-01-24T03:21:42.750Z,51.95
2024-01-24T03:22:42.633Z,51.62
2024-01-24T03:23:42.728Z,53.54
2024-01-24T03:24:42.810Z,53.42
2024-01-24T03:25:42.844Z,54.95
2024-01-24T03:26:42.929Z,55.13
2024-01-24T03:27:42.969Z,55.20
2024-01-24T03:28:43.056Z,53.45
2024-01-24T03:29:43.089Z,55.06
2024-01-24T03:30:43.255Z,53.07
2024-01-24T03:31:43.980Z,53.79
2024-01-24T03:32:43.494Z,53.35
2024-01-24T03:33:43.440Z,53.46
2024-01-24T03:34:43.462Z,54.72
2024-01-24T03:35:43.524Z,53.41
2024-01-24T03:36:43.648Z,54.15
2024-01-24T03:37:43.714Z,54.97
2024-01-24T03:38:43.740Z,53.25
2024-01-24T03:39:43.845Z,55.35
2024-01-24T03:40:43.898Z,53.90
2024-01-24T03:41:43.952Z,52.85
2024-01-24T03:42:43.985Z,55.05
2024-01-24T03:43:44.062Z,53.35
2024-01-24T03:44:44.023Z,54.75
2024-01-24T03:45:44.085Z,53.16
2024-01-24T03:46:44.047Z,53.23
2024-01-24T03:47:44.160Z,54.36
2024-01-24T03:48:44.246Z,53.82
2024-01-24T03:49:44.264Z,56.55
2024-01-24T03:50:44.292Z,53.28
2024-01-24T03:51:44.413Z,54.40
2024-01-24T03:52:44.422Z,55.03
2024-01-24T03:53:44.494Z,55.04
2024-01-24T03:54:44.588Z,55.42
2024-01-24T03:55:44.648Z,53.16
2024-01-24T03:56:44.675Z,54.25
2024-01-24T03:57:44.735Z,55.55
2024-01-24T03:58:44.704Z,54.08
2024-01-24T03:59:44.738Z,55.12
2024-01-24T04:00:44.915Z,54.23
2024-01-24T04:01:44.833Z,54.59
2024-01-24T04:02:44.817Z,53.90
2024-01-24T04:03:44.909Z,55.65
2024-01-24T04:04:44.987Z,54.07
2024-01-24T04:05:44.969Z,55.39
2024-01-24T04:06:45.142Z,53.51
2024-01-24T04:07:45.120Z,53.52
2024-01-24T04:08:45.162Z,52.76
2024-01-24T04:09:45.259Z,54.86
2024-01-24T04:10:45.267Z,55.16
2024-01-24T04:11:45.278Z,54.12
2024-01-24T04:12:45.377Z,53.88
2024-01-24T04:13:45.378Z,53.23
2024-01-24T04:14:45.418Z,53.95
2024-01-24T04:15:45.794Z,55.11
2024-01-24T04:16:45.622Z,53.86
2024-01-24T04:17:45.705Z,55.18
2024-01-24T04:18:45.742Z,54.70
2024-01-24T04:19:52.877Z,50.00
2024-01-24T04:20:52.871Z,50.00
2024-01-24T04:21:52.945Z,50.00
2024-01-24T04:22:52.854Z,50.00
2024-01-24T04:23:52.876Z,50.00
2024-01-24T04:24:52.920Z,50.93
2024-01-24T04:25:52.872Z,52.25
2024-01-24T04:26:52.884Z,52.17
2024-01-24T04:27:52.991Z,51.54
2024-01-24T04:28:52.864Z,51.69
2024-01-24T04:29:52.864Z,53.24
2024-01-24T04:30:52.933Z,51.91
2024-01-24T04:32:00.064Z,50.00
2024-01-24T04:33:00.154Z,50.00
2024-01-24T04:34:00.144Z,50.00
2024-01-24T04:35:00.166Z,50.00
2024-01-24T04:36:00.070Z,50.00
2024-01-24T04:37:00.185Z,50.39
2024-01-24T04:38:00.098Z,50.03
2024-01-24T04:39:00.111Z,50.72
2024-01-24T04:40:00.063Z,51.33
2024-01-24T04:41:00.071Z,51.11
2024-01-24T04:42:05.739Z,51.07
2024-01-24T04:43:01.180Z,51.14
2024-01-24T04:44:00.106Z,51.44
2024-01-24T04:45:00.255Z,51.34
2024-01-24T04:46:00.214Z,51.29
2024-01-24T04:47:00.129Z,51.21
2024-01-24T04:48:00.179Z,50.55
2024-01-24T04:49:00.227Z,52.26
2024-01-24T04:50:00.193Z,52.06
2024-01-24T04:51:00.137Z,50.44
2024-01-24T04:52:00.203Z,51.23
2024-01-24T04:53:00.156Z,52.23
2024-01-24T04:54:00.168Z,52.69
2024-01-24T04:55:00.417Z,52.06
2024-01-24T04:56:00.293Z,50.73
2024-01-24T04:57:00.398Z,51.30
2024-01-24T04:58:00.444Z,50.36
2024-01-24T04:59:00.494Z,50.54
2024-01-24T05:00:02.769Z,51.19
2024-01-24T05:01:00.826Z,52.91
2024-01-24T05:02:00.797Z,52.60
2024-01-24T05:03:00.907Z,52.56
2024-01-24T05:04:01.011Z,52.62
2024-01-24T05:05:01.033Z,53.16
2024-01-24T05:06:07.428Z,53.07
2024-01-24T05:07:02.145Z,53.10
2024-01-24T05:08:01.095Z,53.09
2024-01-24T05:09:01.109Z,53.68
2024-01-24T05:10:01.110Z,53.42
2024-01-24T05:11:01.094Z,53.43
2024-01-24T05:12:01.111Z,54.82
2024-01-24T05:13:01.130Z,52.31
2024-01-24T05:14:01.147Z,52.38
2024-01-24T05:15:01.116Z,51.96
2024-01-24T05:16:01.132Z,53.03
2024-01-24T05:17:01.165Z,52.34
2024-01-24T05:18:01.237Z,52.70
2024-01-24T05:19:01.244Z,51.98
2024-01-24T05:20:01.260Z,51.31
2024-01-24T05:21:01.244Z,52.30
2024-01-24T05:22:01.412Z,53.24
2024-01-24T05:23:01.325Z,51.45
2024-01-24T05:24:01.407Z,52.67
2024-01-24T05:25:01.478Z,52.00
2024-01-24T05:26:01.550Z,50.63
2024-01-24T05:27:01.590Z,51.92
2024-01-24T05:28:01.671Z,51.13
2024-01-24T05:29:01.732Z,51.55
2024-01-24T05:30:09.400Z,52.47
2024-01-24T05:31:02.861Z,52.48
2024-01-24T05:32:01.818Z,52.63
2024-01-24T05:33:01.819Z,52.85
2024-01-24T05:34:01.909Z,52.19
2024-01-24T05:35:01.891Z,51.43
2024-01-24T05:36:01.812Z,52.37
2024-01-24T05:37:01.859Z,53.89
2024-01-24T05:38:01.830Z,53.54
2024-01-24T05:39:01.843Z,52.80
2024-01-24T05:40:01.851Z,50.83
2024-01-24T05:41:01.863Z,50.88
2024-01-24T05:42:01.933Z,52.04
2024-01-24T05:43:02.046Z,51.60
2024-01-24T05:44:02.000Z,53.05
2024-01-24T05:45:02.060Z,52.65
2024-01-24T05:46:02.175Z,54.48
2024-01-24T05:47:02.162Z,54.68
2024-01-24T05:48:02.322Z,52.65
2024-01-24T05:49:02.836Z,52.60
2024-01-24T05:50:02.337Z,52.46
2024-01-24T05:51:02.349Z,54.25
2024-01-24T05:52:02.457Z,51.65
2024-01-24T05:53:02.488Z,52.40
2024-01-24T05:54:02.451Z,52.45
2024-01-24T05:55:02.549Z,51.31
2024-01-24T05:56:02.584Z,52.64
2024-01-24T05:57:02.610Z,53.70
2024-01-24T05:58:02.708Z,52.79
2024-01-24T05:59:02.720Z,51.80
2024-01-24T06:00:02.779Z,52.45
2024-01-24T06:01:25.467Z,54.45
2024-01-24T06:02:02.892Z,54.66
2024-01-24T06:03:02.794Z,55.37
2024-01-24T06:04:02.954Z,56.22
2024-01-24T06:05:02.858Z,57.20
2024-01-24T06:06:02.869Z,58.93
2024-01-24T06:07:02.914Z,55.51
2024-01-24T06:08:02.789Z,56.29
2024-01-24T06:09:02.857Z,57.35
2024-01-24T06:10:02.840Z,55.35
2024-01-24T06:11:02.779Z,55.92
2024-01-24T06:12:02.788Z,54.94
2024-01-24T06:13:02.787Z,53.11
2024-01-24T06:14:02.805Z,53.24
2024-01-24T06:15:02.808Z,53.82
2024-01-24T06:16:02.982Z,55.81
2024-01-24T06:17:02.787Z,53.74
2024-01-24T06:18:02.832Z,52.59
2024-01-24T06:19:02.896Z,52.90
2024-01-24T06:20:02.784Z,53.59
2024-01-24T06:21:02.786Z,53.47
2024-01-24T06:22:02.808Z,53.24
2024-01-24T06:23:02.914Z,54.54
2024-01-24T06:24:02.830Z,53.79
2024-01-24T06:25:02.944Z,51.18
2024-01-24T06:26:02.881Z,51.29
2024-01-24T06:27:02.853Z,51.41
2024-01-24T06:28:02.897Z,51.77
2024-01-24T06:29:02.870Z,52.84
2024-01-24T06:30:18.292Z,53.54
2024-01-24T06:31:03.872Z,51.30
2024-01-24T06:32:02.862Z,51.53
2024-01-24T06:33:02.873Z,51.50
2024-01-24T06:34:02.961Z,53.58
2024-01-24T06:35:02.912Z,54.71
2024-01-24T06:36:02.877Z,53.69
2024-01-24T06:37:02.904Z,53.22
2024-01-24T06:38:02.919Z,52.74
2024-01-24T06:39:02.905Z,52.77
2024-01-24T06:40:02.919Z,52.72
2024-01-24T06:41:03.007Z,52.27
2024-01-24T06:42:03.057Z,51.01
2024-01-24T06:43:03.099Z,52.45
2024-01-24T06:44:03.093Z,52.28
2024-01-24T06:45:03.124Z,52.25
2024-01-24T06:46:25.688Z,53.29
2024-01-24T06:47:03.172Z,53.50
2024-01-24T06:48:03.364Z,54.18
2024-01-24T06:49:03.395Z,55.07
2024-01-24T06:50:03.208Z,56.43
2024-01-24T06:51:03.200Z,58.10
2024-01-24T06:52:03.158Z,57.44
2024-01-24T06:53:03.282Z,56.08
2024-01-24T06:54:03.169Z,58.59
2024-01-24T06:55:03.188Z,56.35
2024-01-24T06:56:03.182Z,56.50
2024-01-24T06:57:03.204Z,56.21
2024-01-24T06:58:04.999Z,56.52
2024-01-24T06:59:03.242Z,55.15
2024-01-24T07:00:03.212Z,55.60
2024-01-24T07:01:03.303Z,56.95
2024-01-24T07:02:03.664Z,56.00
2024-01-24T07:03:03.246Z,56.09
2024-01-24T07:04:03.407Z,55.31
2024-01-24T07:05:03.376Z,55.30
2024-01-24T07:06:03.273Z,55.34
2024-01-24T07:07:03.319Z,55.45
2024-01-24T07:08:03.283Z,54.52
2024-01-24T07:09:03.278Z,55.25
2024-01-24T07:10:03.537Z,54.63
2024-01-24T07:11:03.327Z,54.60
2024-01-24T07:12:03.457Z,57.54
2024-01-24T07:13:03.480Z,56.96
2024-01-24T07:14:03.454Z,55.55
2024-01-24T07:15:03.455Z,56.62
2024-01-24T07:16:03.553Z,57.44
2024-01-24T07:17:03.543Z,56.25
2024-01-24T07:18:03.602Z,57.42
2024-01-24T07:19:03.675Z,56.99
2024-01-24T07:20:03.566Z,57.15
2024-01-24T07:21:03.609Z,56.19
2024-01-24T07:22:05.033Z,57.61
2024-01-24T07:23:03.658Z,55.07
2024-01-24T07:24:03.817Z,56.27
2024-01-24T07:25:03.769Z,57.45
2024-01-24T07:26:03.763Z,58.39
2024-01-24T07:27:03.817Z,57.16
2024-01-24T07:28:03.926Z,57.54
2024-01-24T07:29:03.889Z,56.22
2024-01-24T07:30:03.879Z,57.93
2024-01-24T07:31:03.976Z,59.15
2024-01-24T07:32:03.911Z,58.30
2024-01-24T07:33:04.015Z,58.93
2024-01-24T07:34:04.123Z,60.15
2024-01-24T07:35:04.150Z,59.78
2024-01-24T07:36:04.027Z,59.12
2024-01-24T07:37:04.134Z,57.41
2024-01-24T07:38:04.103Z,58.79
2024-01-24T07:39:04.123Z,57.72
2024-01-24T07:40:04.319Z,58.59
2024-01-24T07:41:04.161Z,59.10
2024-01-24T07:42:04.204Z,60.05
2024-01-24T07:43:04.883Z,59.68
2024-01-24T07:44:04.248Z,60.01
2024-01-24T07:45:04.269Z,61.35
2024-01-24T07:46:05.540Z,60.58
2024-01-24T07:47:04.337Z,61.37
2024-01-24T07:48:04.491Z,60.02
2024-01-24T07:49:04.417Z,61.70
2024-01-24T07:50:04.498Z,60.38
2024-01-24T07:51:04.326Z,61.87
2024-01-24T07:52:04.489Z,61.96
2024-01-24T07:53:04.338Z,61.89
2024-01-24T07:54:04.309Z,63.13
2024-01-24T07:55:04.465Z,61.56
2024-01-24T07:56:11.306Z,62.66
2024-01-24T07:57:05.436Z,62.79
2024-01-24T07:58:04.392Z,62.87
2024-01-24T07:59:04.372Z,62.86
2024-01-24T08:00:04.382Z,63.31
2024-01-24T08:01:04.441Z,64.12
2024-01-24T08:02:04.446Z,64.69
2024-01-24T08:03:04.397Z,62.63
2024-01-24T08:04:04.523Z,62.92
2024-01-24T08:05:04.566Z,65.15
2024-01-24T08:06:04.368Z,64.91
2024-01-24T08:07:04.350Z,62.09
2024-01-24T08:08:04.333Z,63.69
2024-01-24T08:09:04.359Z,65.06
2024-01-24T08:10:04.419Z,67.07
2024-01-24T08:11:04.353Z,66.29
2024-01-24T08:12:04.330Z,64.64
2024-01-24T08:13:04.421Z,63.32
2024-01-24T08:14:04.385Z,65.42
2024-01-24T08:15:04.372Z,66.45
2024-01-24T08:16:04.488Z,65.43
2024-01-24T08:17:04.427Z,67.70
2024-01-24T08:18:04.516Z,66.80
2024-01-24T08:19:04.629Z,66.98
2024-01-24T08:20:04.534Z,66.26
2024-01-24T08:21:07.782Z,64.12
2024-01-24T08:22:04.939Z,64.22
2024-01-24T08:23:04.550Z,64.68
2024-01-24T08:24:04.828Z,65.02
2024-01-24T08:25:04.573Z,66.43
2024-01-24T08:26:04.536Z,68.26
2024-01-24T08:27:04.588Z,68.17
2024-01-24T08:28:04.709Z,68.21
2024-01-24T08:29:04.519Z,68.50
2024-01-24T08:30:04.584Z,67.82
2024-01-24T08:31:04.578Z,68.95
2024-01-24T08:32:04.544Z,69.45
2024-01-24T08:33:04.738Z,68.77
2024-01-24T08:34:04.689Z,69.19
2024-01-24T08:35:04.620Z,70.75
2024-01-24T08:36:04.529Z,67.51
2024-01-24T08:37:04.661Z,69.90
2024-01-24T08:38:04.573Z,69.60
2024-01-24T08:39:04.530Z,71.17
2024-01-24T08:40:04.539Z,68.83
2024-01-24T08:41:04.660Z,69.58
2024-01-24T08:42:04.585Z,71.17
2024-01-24T08:43:04.596Z,72.50
2024-01-24T08:44:04.597Z,69.21
2024-01-24T08:45:04.576Z,70.87
2024-01-24T08:46:04.652Z,70.71
2024-01-24T08:47:04.593Z,71.31
2024-01-24T08:48:04.743Z,71.81
2024-01-24T08:49:04.798Z,70.92
2024-01-24T08:50:04.773Z,71.24
2024-01-24T08:51:04.593Z,70.24
2024-01-24T08:52:04.598Z,70.34
2024-01-24T08:53:04.552Z,72.16
2024-01-24T08:54:04.833Z,72.01
2024-01-24T08:55:04.633Z,71.29
2024-01-24T08:56:04.586Z,71.23
2024-01-24T08:57:04.571Z,71.62
2024-01-24T08:58:04.717Z,71.73
2024-01-24T08:59:04.582Z,70.83
2024-01-24T09:00:04.591Z,74.15
2024-01-24T09:01:04.729Z,71.73
2024-01-24T09:02:04.592Z,71.37
2024-01-24T09:03:04.658Z,72.23
2024-01-24T09:04:04.642Z,74.49
2024-01-24T09:05:04.599Z,72.84
2024-01-24T09:06:04.749Z,71.35
2024-01-24T09:07:04.737Z,74.72
2024-01-24T09:08:04.712Z,74.72
2024-01-24T09:09:04.743Z,74.20
2024-01-24T09:10:04.812Z,73.82
2024-01-24T09:11:04.764Z,73.29
2024-01-24T09:12:04.860Z,76.14
2024-01-24T09:13:05.095Z,74.14
2024-01-24T09:14:04.885Z,75.23
2024-01-24T09:15:04.911Z,74.65
2024-01-24T09:16:05.018Z,76.87
2024-01-24T09:17:05.023Z,76.62
2024-01-24T09:18:05.117Z,75.52
2024-01-24T09:19:05.232Z,75.06
2024-01-24T09:20:05.230Z,76.82
2024-01-24T09:21:05.117Z,78.68
2024-01-24T09:22:05.223Z,77.91
2024-01-24T09:23:05.265Z,78.29
2024-01-24T09:24:05.286Z,75.81
2024-01-24T09:25:08.121Z,79.37
2024-01-24T09:26:05.298Z,78.43
2024-01-24T09:27:05.328Z,78.53
2024-01-24T09:28:05.349Z,79.00
2024-01-24T09:29:05.331Z,79.40
2024-01-24T09:30:05.330Z,79.13
2024-01-24T09:31:05.314Z,79.61
2024-01-24T09:32:05.308Z,79.18
2024-01-24T09:33:05.484Z,77.70
2024-01-24T09:34:05.554Z,78.85
2024-01-24T09:35:05.506Z,78.05
2024-01-24T09:36:05.314Z,79.59
2024-01-24T09:37:05.333Z,77.39
2024-01-24T09:38:05.340Z,78.18
2024-01-24T09:39:05.340Z,78.22
2024-01-24T09:40:05.578Z,77.21
2024-01-24T09:41:05.366Z,79.61
2024-01-24T09:42:05.399Z,78.07
2024-01-24T09:43:05.506Z,78.07
2024-01-24T09:44:05.349Z,79.60
2024-01-24T09:45:07.210Z,79.19
2024-01-24T09:46:05.344Z,78.88
2024-01-24T09:47:05.317Z,81.30
2024-01-24T09:48:05.383Z,79.81
2024-01-24T09:49:05.430Z,79.09
2024-01-24T09:50:05.378Z,79.81
2024-01-24T09:51:05.426Z,81.50
2024-01-24T09:52:05.410Z,81.43
2024-01-24T09:53:05.366Z,80.65
2024-01-24T09:54:05.346Z,80.29
2024-01-24T09:55:05.569Z,80.96
2024-01-24T09:56:05.352Z,80.80
2024-01-24T09:57:05.443Z,80.79
2024-01-24T09:58:06.858Z,80.93
2024-01-24T09:59:05.617Z,80.97
2024-01-24T10:00:05.691Z,81.20
2024-01-24T10:01:05.859Z,81.29
2024-01-24T10:02:05.761Z,81.23
2024-01-24T10:03:05.919Z,81.37
2024-01-24T10:04:05.982Z,81.30
2024-01-24T10:05:06.008Z,82.93
2024-01-24T10:06:06.070Z,82.15
2024-01-24T10:07:06.212Z,81.85
2024-01-24T10:08:06.212Z,82.11
2024-01-24T10:09:08.351Z,81.56
2024-01-24T10:10:06.578Z,81.10
2024-01-24T10:11:06.474Z,83.25
2024-01-24T10:12:06.512Z,83.25
2024-01-24T10:13:06.591Z,80.45
2024-01-24T10:14:06.551Z,79.60
2024-01-24T10:15:06.614Z,80.88
2024-01-24T10:16:09.668Z,79.13
2024-01-24T10:17:06.570Z,79.46
2024-01-24T10:18:06.737Z,81.41
2024-01-24T10:19:06.666Z,80.24
2024-01-24T10:20:06.742Z,80.83
2024-01-24T10:21:06.767Z,80.02
2024-01-24T10:22:09.473Z,79.41
2024-01-24T10:23:06.613Z,79.60
2024-01-24T10:24:06.599Z,80.03
2024-01-24T10:25:06.735Z,80.52
2024-01-24T10:26:06.723Z,81.11
2024-01-24T10:27:06.631Z,82.56
2024-01-24T10:28:06.702Z,85.01
2024-01-24T10:29:06.630Z,84.99
2024-01-24T10:30:06.626Z,86.53
2024-01-24T10:31:06.724Z,85.17
2024-01-24T10:32:06.596Z,86.11
2024-01-24T10:33:06.967Z,86.38
2024-01-24T10:34:06.729Z,86.03
2024-01-24T10:35:06.786Z,89.16
2024-01-24T10:36:14.435Z,88.83
2024-01-24T10:37:07.662Z,88.91
2024-01-24T10:38:06.634Z,89.05
2024-01-24T10:39:06.667Z,89.31
2024-01-24T10:40:06.691Z,89.23
2024-01-24T10:41:07.412Z,90.07
2024-01-24T10:42:10.305Z,87.77
2024-01-24T10:43:07.677Z,87.90
2024-01-24T10:44:06.651Z,88.16
2024-01-24T10:45:06.887Z,88.82
2024-01-24T10:46:06.689Z,88.84
2024-01-24T10:47:06.698Z,89.82
2024-01-24T10:48:06.739Z,90.12
2024-01-24T10:49:06.973Z,89.40
2024-01-24T10:50:07.051Z,90.37
2024-01-24T10:51:06.663Z,89.28
2024-01-24T10:52:06.813Z,90.06
2024-01-24T10:53:06.653Z,90.26
2024-01-24T10:54:06.739Z,88.80
2024-01-24T10:55:06.968Z,90.29
2024-01-24T10:56:06.706Z,89.35
2024-01-24T10:57:06.656Z,89.01
2024-01-24T10:58:07.732Z,90.96
2024-01-24T10:59:06.720Z,90.45
2024-01-24T11:00:08.431Z,90.14
2024-01-24T11:01:06.795Z,90.18
2024-01-24T11:02:06.656Z,90.40
2024-01-24T11:03:06.711Z,90.70
2024-01-24T11:04:08.834Z,90.89
2024-01-24T11:05:06.990Z,92.87
2024-01-24T11:06:06.713Z,91.34
2024-01-24T11:07:06.695Z,92.25
2024-01-24T11:08:06.680Z,91.45
2024-01-24T11:09:06.691Z,91.14
2024-01-24T11:10:09.438Z,89.88
2024-01-24T11:11:06.698Z,90.02
2024-01-24T11:12:06.707Z,90.31
2024-01-24T11:13:06.740Z,91.06
2024-01-24T11:14:06.692Z,91.33
2024-01-24T11:15:06.935Z,91.68
2024-01-24T11:16:09.330Z,92.13
2024-01-24T11:17:06.667Z,92.21
2024-01-24T11:18:06.773Z,92.35
2024-01-24T11:19:06.749Z,92.66
2024-01-24T11:20:06.804Z,92.51
2024-01-24T11:21:06.685Z,93.64
2024-01-24T11:22:13.320Z,93.66
2024-01-24T11:23:07.700Z,93.77
2024-01-24T11:24:06.713Z,94.03
2024-01-24T11:25:06.731Z,93.98
2024-01-24T11:26:06.730Z,94.80
2024-01-24T11:27:06.709Z,94.97
2024-01-24T11:28:06.860Z,94.73
2024-01-24T11:29:06.717Z,94.06
2024-01-24T11:30:06.698Z,92.90
2024-01-24T11:31:06.798Z,94.48
2024-01-24T11:32:10.410Z,94.31
2024-01-24T11:33:07.838Z,94.38
2024-01-24T11:34:06.844Z,94.44
2024-01-24T11:35:06.796Z,94.97
2024-01-24T11:36:06.930Z,94.52
2024-01-24T11:37:06.828Z,94.34
2024-01-24T11:38:13.260Z,94.61
2024-01-24T11:39:07.745Z,94.66
2024-01-24T11:40:06.786Z,94.79
2024-01-24T11:41:06.741Z,95.26
2024-01-24T11:42:06.748Z,94.77
2024-01-24T11:43:06.902Z,94.96
2024-01-24T11:44:06.763Z,96.04
2024-01-24T11:45:06.789Z,95.55
2024-01-24T11:46:07.014Z,95.58
2024-01-24T11:47:06.794Z,95.04
2024-01-24T11:48:06.836Z,95.29
2024-01-24T11:49:06.825Z,94.46
2024-01-24T11:50:06.776Z,93.73
2024-01-24T11:51:06.746Z,95.21
2024-01-24T11:52:06.942Z,94.88
2024-01-24T11:53:06.935Z,93.32
2024-01-24T11:54:06.913Z,94.01
2024-01-24T11:55:07.006Z,93.66
2024-01-24T11:56:07.153Z,94.03
2024-01-24T11:57:07.103Z,93.20
2024-01-24T11:58:07.318Z,94.81
2024-01-24T11:59:07.182Z,94.19
2024-01-24T12:00:07.169Z,94.56
2024-01-24T12:01:07.462Z,94.00
2024-01-24T12:02:07.188Z,94.22
2024-01-24T12:03:07.199Z,94.34
2024-01-24T12:04:07.285Z,95.40
2024-01-24T12:05:07.221Z,93.78
2024-01-24T12:06:07.396Z,94.66
2024-01-24T12:07:07.351Z,94.85
2024-01-24T12:08:07.293Z,95.10
2024-01-24T12:09:07.298Z,95.68
2024-01-24T12:10:07.329Z,94.09
2024-01-24T12:11:07.416Z,94.72
2024-01-24T12:12:07.439Z,94.09
2024-01-24T12:13:07.522Z,94.77
2024-01-24T12:14:07.494Z,95.62
2024-01-24T12:15:07.555Z,94.45
2024-01-24T12:16:07.818Z,96.07
2024-01-24T12:17:07.670Z,94.40
2024-01-24T12:18:07.757Z,94.57
2024-01-24T12:19:07.889Z,96.04
2024-01-24T12:20:07.929Z,93.66
2024-01-24T12:21:07.863Z,94.87
2024-01-24T12:22:08.008Z,94.38
2024-01-24T12:23:07.948Z,94.31
2024-01-24T12:24:08.019Z,95.21
2024-01-24T12:25:08.135Z,96.13
2024-01-24T12:26:08.211Z,94.27
2024-01-24T12:27:08.149Z,94.94
2024-01-24T12:28:08.281Z,94.66
2024-01-24T12:29:08.296Z,94.68
2024-01-24T12:30:11.077Z,95.53
2024-01-24T12:31:08.528Z,95.65
2024-01-24T12:32:08.570Z,95.28
2024-01-24T12:33:08.426Z,95.73
2024-01-24T12:34:08.440Z,95.59
2024-01-24T12:35:08.503Z,95.15
2024-01-24T12:36:08.373Z,96.99
2024-01-24T12:37:08.375Z,94.65
2024-01-24T12:38:08.379Z,96.64
2024-01-24T12:39:08.380Z,96.37
2024-01-24T12:40:08.386Z,95.60
2024-01-24T12:41:08.397Z,96.29
2024-01-24T12:42:08.455Z,94.18
2024-01-24T12:43:08.598Z,94.59
2024-01-24T12:44:08.581Z,95.51
2024-01-24T12:45:08.670Z,95.85
2024-01-24T12:46:09.339Z,94.44
2024-01-24T12:47:08.745Z,93.82
2024-01-24T12:48:08.907Z,93.72
2024-01-24T12:49:08.931Z,95.00
2024-01-24T12:50:08.921Z,95.23
2024-01-24T12:51:09.001Z,94.99
2024-01-24T12:52:08.985Z,95.33
2024-01-24T12:53:08.981Z,94.74